Nearby METAR Reports

 

KFYM - Fayetteville, Tennessee, USA
Distance from station: NNW 3mi, 5km
Updated: Mon, 21-Jan-2019 3:20pm CST
Clear
Clear
 Wind from calm
Wind: Calm
Temperature: 36°F , 2°C
Dew Point: 10°F , -12°C
Humidity: 35%
Barometer: 30.38 inHg , 1028.8 hPa
Clouds: Clear
Visibility: 10 miles , 16 km
2019/01/21 21:20 KFYM 212120Z AUTO 00000KT 10SM CLR 02/M12 A3038 RMK A01
KMDQ - Huntsville/Madis, Alabama, USA
Distance from station: S 11mi, 18km
Updated: Mon, 21-Jan-2019 3:15pm CST
Clear
Clear
 Wind from N
Wind: N 5 mph , 7 km/h
Temperature: 37°F , 3°C
Wind Chill: 33°F , 1°C
Dew Point: 10°F , -12°C
Humidity: 33%
Barometer: 30.39 inHg , 1029.1 hPa
Clouds: Clear
Visibility: 10 miles , 16 km
2019/01/21 21:15 KMDQ 212115Z AUTO 35004KT 10SM CLR 03/M12 A3039 RMK A02 T00321123
KHUA - Redstone Arsenal, Alabama, USA
Distance from station: SSW 25mi, 40km
Updated: Mon, 21-Jan-2019 2:58pm CST
Clear
Clear
 Wind from SE
Wind: SE 3 mph , 6 km/h
Temperature: 39°F , 4°C
Dew Point: 10°F , -12°C
Humidity: 30%
Barometer: 30.38 inHg , 1028.8 hPa
Clouds: Clear
Visibility: 10 miles , 16 km
2019/01/21 20:58 KHUA 212058Z AUTO 14003KT 10SM CLR 04/M12 A3038 RMK AO2 SLP296 T00351121 57025
 
KGZS - Pulaski, Tennessee, USA
Distance from station: WNW 29mi, 47km
Updated: Mon, 21-Jan-2019 3:15pm CST
Clear
Clear
 Wind from varies
Wind: varies 6 mph , 9 km/h
Temperature: 36°F , 2°C
Wind Chill: 31°F , -1°C
Dew Point: 10°F , -12°C
Humidity: 35%
Barometer: 30.40 inHg , 1029.5 hPa
Clouds: Clear
Visibility: 10 miles , 16 km
2019/01/21 21:15 KGZS 212115Z AUTO VRB05KT 10SM CLR 02/M12 A3040 RMK A01
KBGF - Winchester, Tennessee, USA
Distance from station: ENE 30mi, 48km
Updated: Mon, 21-Jan-2019 3:15pm CST
Clear
Clear
 Wind from SE
Wind: SE 5 mph , 7 km/h
Temperature: 36°F , 2°C
Wind Chill: 32°F , 0°C
Dew Point: 5°F , -15°C
Humidity: 27%
Barometer: 30.39 inHg , 1029.1 hPa
Clouds: Clear
Visibility: 10 miles , 16 km
2019/01/21 21:15 KBGF 212115Z AUTO 13004KT 10SM CLR 02/M15 A3039 RMK A01
KTHA - Tullahoma, Tennessee, USA
Distance from station: NE 30mi, 48km
Updated: Mon, 21-Jan-2019 3:15pm CST
Clear
Clear
 Wind from calm
Wind: Calm
Temperature: 34°F , 1°C
Dew Point: 7°F , -14°C
Humidity: 32%
Barometer: 30.38 inHg , 1028.8 hPa
Clouds: Clear
Visibility: 10 miles , 16 km
2019/01/21 21:15 KTHA 212115Z AUTO 00000KT 10SM CLR 01/M14 A3038 RMK A01
 
KDCU - Decatur, Alabama, USA
Distance from station: SW 34mi, 55km
Updated: Mon, 21-Jan-2019 2:53pm CST
Clear
Clear
 Wind from varies
Wind: varies 6 mph , 9 km/h
Temperature: 37°F , 3°C
Wind Chill: 32°F , 0°C
Dew Point: 12°F , -11°C
Humidity: 35%
Barometer: 30.41 inHg , 1029.8 hPa
Clouds: Clear
Visibility: 10 miles , 16 km
2019/01/21 20:53 KDCU 212053Z AUTO VRB05KT 10SM CLR 03/M11 A3041 RMK AO2 SLP301 T00281106 56026 $
KSYI - Shelbyville, Tennessee, USA
Distance from station: N 38mi, 61km
Updated: Mon, 21-Jan-2019 3:15pm CST
Clear
Clear
 Wind from E
Wind: E 5 mph , 7 km/h
Temperature: 32°F , 0°C
Wind Chill: 27°F , -3°C
Dew Point: 10°F , -12°C
Humidity: 40%
Barometer: 30.42 inHg , 1030.1 hPa
Clouds: Clear
Visibility: 10 miles , 16 km
2019/01/21 21:15 KSYI 212115Z AUTO 09004KT 10SM CLR M00/M12 A3042 RMK A01
K4A6 - Scottsboro, Alabama, USA
Distance from station: SE 39mi, 63km
Updated: Mon, 21-Jan-2019 3:35pm CST
Clear
Clear
 Wind from varies
Wind: varies 5 mph , 7 km/h, Gust: 13 mph , 20 km/h
Temperature: 37°F , 3°C
Wind Chill: 33°F , 1°C
Dew Point: 7°F , -14°C
Humidity: 28%
Barometer: 30.41 inHg , 1029.8 hPa
Clouds: Clear
Visibility: 10 miles , 16 km
2019/01/21 21:35 K4A6 212135Z AUTO VRB04G11KT 10SM CLR 03/M14 A3041 RMK AO2